sensor_id;sensor_type;location;lat;lon;timestamp;P1;durP1;ratioP1;P2;durP2;ratioP2
71814;SDS011;59659;41.520;23.794;2022-12-07T00:00:00;36.45;;;15.60;;
71814;SDS011;59659;41.520;23.794;2022-12-07T00:01:15;31.85;;;14.18;;
71814;SDS011;59659;41.520;23.794;2022-12-07T00:02:27;31.75;;;14.63;;
71814;SDS011;59659;41.520;23.794;2022-12-07T00:03:39;31.52;;;13.68;;
71814;SDS011;59659;41.520;23.794;2022-12-07T00:04:51;28.35;;;13.23;;
71814;SDS011;59659;41.520;23.794;2022-12-07T00:06:03;30.38;;;15.52;;
71814;SDS011;59659;41.520;23.794;2022-12-07T00:07:15;31.98;;;14.18;;
71814;SDS011;59659;41.520;23.794;2022-12-07T00:08:27;28.35;;;15.80;;
71814;SDS011;59659;41.520;23.794;2022-12-07T00:09:38;37.67;;;16.35;;
71814;SDS011;59659;41.520;23.794;2022-12-07T00:10:50;37.88;;;16.08;;
71814;SDS011;59659;41.520;23.794;2022-12-07T00:12:01;37.95;;;16.15;;
71814;SDS011;59659;41.520;23.794;2022-12-07T00:13:13;35.58;;;15.75;;
71814;SDS011;59659;41.520;23.794;2022-12-07T00:14:25;28.92;;;14.48;;
71814;SDS011;59659;41.520;23.794;2022-12-07T00:15:36;33.13;;;12.30;;
71814;SDS011;59659;41.520;23.794;2022-12-07T00:16:48;19.48;;;10.10;;
71814;SDS011;59659;41.520;23.794;2022-12-07T00:18:00;20.02;;;11.25;;
71814;SDS011;59659;41.520;23.794;2022-12-07T00:19:12;22.20;;;11.70;;
71814;SDS011;59659;41.520;23.794;2022-12-07T00:20:24;28.10;;;11.77;;
71814;SDS011;59659;41.520;23.794;2022-12-07T00:21:36;23.63;;;10.98;;
71814;SDS011;59659;41.520;23.794;2022-12-07T00:22:47;23.35;;;10.80;;
71814;SDS011;59659;41.520;23.794;2022-12-07T00:23:59;19.55;;;10.02;;
71814;SDS011;59659;41.520;23.794;2022-12-07T00:25:10;19.02;;;10.20;;
71814;SDS011;59659;41.520;23.794;2022-12-07T00:26:26;25.02;;;10.32;;
71814;SDS011;59659;41.520;23.794;2022-12-07T00:27:38;22.83;;;9.18;;
71814;SDS011;59659;41.520;23.794;2022-12-07T00:28:53;21.40;;;11.20;;
71814;SDS011;59659;41.520;23.794;2022-12-07T00:30:05;23.80;;;11.13;;
71814;SDS011;59659;41.520;23.794;2022-12-07T00:31:18;22.77;;;10.23;;
71814;SDS011;59659;41.520;23.794;2022-12-07T00:32:30;20.40;;;10.32;;
71814;SDS011;59659;41.520;23.794;2022-12-07T00:33:41;19.02;;;9.88;;
71814;SDS011;59659;41.520;23.794;2022-12-07T00:34:53;22.25;;;10.52;;
71814;SDS011;59659;41.520;23.794;2022-12-07T00:36:08;19.13;;;9.63;;
71814;SDS011;59659;41.520;23.794;2022-12-07T00:37:20;28.33;;;10.95;;
71814;SDS011;59659;41.520;23.794;2022-12-07T00:38:32;20.90;;;10.88;;
71814;SDS011;59659;41.520;23.794;2022-12-07T00:39:45;25.15;;;10.60;;
71814;SDS011;59659;41.520;23.794;2022-12-07T00:40:58;20.35;;;9.90;;
71814;SDS011;59659;41.520;23.794;2022-12-07T00:42:09;22.65;;;10.45;;
71814;SDS011;59659;41.520;23.794;2022-12-07T00:43:21;18.77;;;11.20;;
71814;SDS011;59659;41.520;23.794;2022-12-07T00:44:32;24.85;;;12.10;;
71814;SDS011;59659;41.520;23.794;2022-12-07T00:45:44;25.17;;;12.65;;
71814;SDS011;59659;41.520;23.794;2022-12-07T00:46:56;29.65;;;13.77;;
71814;SDS011;59659;41.520;23.794;2022-12-07T00:48:07;36.95;;;14.68;;
71814;SDS011;59659;41.520;23.794;2022-12-07T00:49:19;40.95;;;17.23;;
71814;SDS011;59659;41.520;23.794;2022-12-07T00:50:30;31.33;;;14.77;;
71814;SDS011;59659;41.520;23.794;2022-12-07T00:51:42;30.60;;;13.65;;
71814;SDS011;59659;41.520;23.794;2022-12-07T00:52:53;27.23;;;14.35;;
71814;SDS011;59659;41.520;23.794;2022-12-07T00:54:05;28.40;;;14.68;;
71814;SDS011;59659;41.520;23.794;2022-12-07T00:55:17;28.30;;;13.63;;
71814;SDS011;59659;41.520;23.794;2022-12-07T00:56:29;26.38;;;14.18;;
71814;SDS011;59659;41.520;23.794;2022-12-07T00:57:40;29.73;;;14.27;;
71814;SDS011;59659;41.520;23.794;2022-12-07T00:58:53;26.77;;;12.40;;
71814;SDS011;59659;41.520;23.794;2022-12-07T01:00:05;25.65;;;12.73;;
71814;SDS011;59659;41.520;23.794;2022-12-07T01:01:17;40.03;;;16.73;;
71814;SDS011;59659;41.520;23.794;2022-12-07T01:02:29;35.65;;;17.10;;
71814;SDS011;59659;41.520;23.794;2022-12-07T01:03:40;39.75;;;17.05;;
71814;SDS011;59659;41.520;23.794;2022-12-07T01:04:52;37.28;;;16.70;;
71814;SDS011;59659;41.520;23.794;2022-12-07T01:06:04;33.03;;;15.02;;
71814;SDS011;59659;41.520;23.794;2022-12-07T01:07:15;37.67;;;18.38;;
71814;SDS011;59659;41.520;23.794;2022-12-07T01:08:27;35.53;;;16.95;;
71814;SDS011;59659;41.520;23.794;2022-12-07T01:09:39;30.65;;;14.88;;
71814;SDS011;59659;41.520;23.794;2022-12-07T01:10:58;29.40;;;14.07;;
71814;SDS011;59659;41.520;23.794;2022-12-07T01:12:09;25.48;;;13.13;;
71814;SDS011;59659;41.520;23.794;2022-12-07T01:13:21;29.95;;;14.38;;
71814;SDS011;59659;41.520;23.794;2022-12-07T01:14:32;27.90;;;14.35;;
71814;SDS011;59659;41.520;23.794;2022-12-07T01:15:44;32.90;;;15.00;;
71814;SDS011;59659;41.520;23.794;2022-12-07T01:16:55;22.52;;;13.50;;
71814;SDS011;59659;41.520;23.794;2022-12-07T01:18:07;23.42;;;11.38;;
71814;SDS011;59659;41.520;23.794;2022-12-07T01:19:19;36.67;;;17.02;;
71814;SDS011;59659;41.520;23.794;2022-12-07T01:20:30;26.65;;;15.93;;
71814;SDS011;59659;41.520;23.794;2022-12-07T01:21:42;36.58;;;15.57;;
71814;SDS011;59659;41.520;23.794;2022-12-07T01:22:53;32.28;;;13.80;;
71814;SDS011;59659;41.520;23.794;2022-12-07T01:24:06;29.52;;;13.98;;
71814;SDS011;59659;41.520;23.794;2022-12-07T01:25:18;30.20;;;14.40;;
71814;SDS011;59659;41.520;23.794;2022-12-07T01:26:30;37.33;;;14.45;;
71814;SDS011;59659;41.520;23.794;2022-12-07T01:27:41;31.27;;;14.38;;
71814;SDS011;59659;41.520;23.794;2022-12-07T01:28:53;33.20;;;15.52;;
71814;SDS011;59659;41.520;23.794;2022-12-07T01:30:06;34.55;;;15.20;;
71814;SDS011;59659;41.520;23.794;2022-12-07T01:31:19;29.48;;;15.50;;
71814;SDS011;59659;41.520;23.794;2022-12-07T01:32:31;28.85;;;14.55;;
71814;SDS011;59659;41.520;23.794;2022-12-07T01:33:43;30.58;;;14.10;;
71814;SDS011;59659;41.520;23.794;2022-12-07T01:34:56;31.17;;;14.77;;
71814;SDS011;59659;41.520;23.794;2022-12-07T01:36:08;30.23;;;13.30;;
71814;SDS011;59659;41.520;23.794;2022-12-07T01:37:24;24.90;;;11.95;;
71814;SDS011;59659;41.520;23.794;2022-12-07T01:38:35;28.48;;;12.45;;
71814;SDS011;59659;41.520;23.794;2022-12-07T01:39:50;35.08;;;16.00;;
71814;SDS011;59659;41.520;23.794;2022-12-07T01:41:02;33.95;;;14.25;;
71814;SDS011;59659;41.520;23.794;2022-12-07T01:42:13;39.33;;;15.02;;
71814;SDS011;59659;41.520;23.794;2022-12-07T01:43:25;34.55;;;14.93;;
71814;SDS011;59659;41.520;23.794;2022-12-07T01:46:07;24.63;;;10.90;;
71814;SDS011;59659;41.520;23.794;2022-12-07T01:47:19;19.05;;;9.55;;
71814;SDS011;59659;41.520;23.794;2022-12-07T01:48:35;19.83;;;10.23;;
71814;SDS011;59659;41.520;23.794;2022-12-07T01:49:48;21.00;;;11.63;;
71814;SDS011;59659;41.520;23.794;2022-12-07T01:51:01;23.10;;;10.00;;
71814;SDS011;59659;41.520;23.794;2022-12-07T01:52:15;19.27;;;10.07;;
71814;SDS011;59659;41.520;23.794;2022-12-07T01:53:29;24.52;;;9.98;;
71814;SDS011;59659;41.520;23.794;2022-12-07T01:54:42;16.80;;;9.07;;
71814;SDS011;59659;41.520;23.794;2022-12-07T01:55:55;17.85;;;9.85;;
71814;SDS011;59659;41.520;23.794;2022-12-07T01:57:07;18.90;;;9.55;;
71814;SDS011;59659;41.520;23.794;2022-12-07T01:58:19;19.13;;;9.82;;
71814;SDS011;59659;41.520;23.794;2022-12-07T01:59:31;17.42;;;9.32;;
71814;SDS011;59659;41.520;23.794;2022-12-07T02:00:43;19.10;;;8.70;;
71814;SDS011;59659;41.520;23.794;2022-12-07T02:01:54;26.05;;;10.48;;
71814;SDS011;59659;41.520;23.794;2022-12-07T02:03:09;17.95;;;8.68;;
71814;SDS011;59659;41.520;23.794;2022-12-07T02:04:22;20.45;;;9.20;;
71814;SDS011;59659;41.520;23.794;2022-12-07T02:05:35;19.70;;;10.07;;
71814;SDS011;59659;41.520;23.794;2022-12-07T02:06:48;23.35;;;9.55;;
71814;SDS011;59659;41.520;23.794;2022-12-07T02:07:59;24.65;;;11.02;;
71814;SDS011;59659;41.520;23.794;2022-12-07T02:09:11;26.70;;;12.93;;
71814;SDS011;59659;41.520;23.794;2022-12-07T02:10:27;26.45;;;11.35;;
71814;SDS011;59659;41.520;23.794;2022-12-07T02:11:39;23.98;;;11.85;;
71814;SDS011;59659;41.520;23.794;2022-12-07T02:12:53;23.30;;;11.02;;
71814;SDS011;59659;41.520;23.794;2022-12-07T02:14:05;24.88;;;11.52;;
71814;SDS011;59659;41.520;23.794;2022-12-07T02:15:17;26.00;;;10.30;;
71814;SDS011;59659;41.520;23.794;2022-12-07T02:19:03;22.80;;;9.45;;
71814;SDS011;59659;41.520;23.794;2022-12-07T02:20:21;25.52;;;12.00;;
71814;SDS011;59659;41.520;23.794;2022-12-07T02:21:44;14.52;;;8.45;;
71814;SDS011;59659;41.520;23.794;2022-12-07T02:23:04;17.55;;;8.82;;
71814;SDS011;59659;41.520;23.794;2022-12-07T02:28:36;19.13;;;9.63;;
71814;SDS011;59659;41.520;23.794;2022-12-07T02:31:13;17.65;;;8.90;;
71814;SDS011;59659;41.520;23.794;2022-12-07T02:32:29;17.95;;;8.20;;
71814;SDS011;59659;41.520;23.794;2022-12-07T02:33:45;20.02;;;9.38;;
71814;SDS011;59659;41.520;23.794;2022-12-07T02:35:07;16.75;;;8.95;;
71814;SDS011;59659;41.520;23.794;2022-12-07T02:36:22;24.83;;;8.68;;
71814;SDS011;59659;41.520;23.794;2022-12-07T02:37:42;18.92;;;9.00;;
71814;SDS011;59659;41.520;23.794;2022-12-07T02:38:55;15.68;;;8.57;;
71814;SDS011;59659;41.520;23.794;2022-12-07T02:42:37;15.05;;;8.65;;
71814;SDS011;59659;41.520;23.794;2022-12-07T02:43:57;19.08;;;8.98;;
71814;SDS011;59659;41.520;23.794;2022-12-07T02:45:12;22.38;;;8.80;;
71814;SDS011;59659;41.520;23.794;2022-12-07T02:46:25;19.98;;;8.85;;
71814;SDS011;59659;41.520;23.794;2022-12-07T02:47:39;18.88;;;9.50;;
71814;SDS011;59659;41.520;23.794;2022-12-07T02:48:51;20.42;;;8.77;;
71814;SDS011;59659;41.520;23.794;2022-12-07T02:50:04;18.67;;;9.45;;
71814;SDS011;59659;41.520;23.794;2022-12-07T02:51:17;14.52;;;8.13;;
71814;SDS011;59659;41.520;23.794;2022-12-07T02:52:28;18.70;;;9.02;;
71814;SDS011;59659;41.520;23.794;2022-12-07T02:53:41;15.90;;;8.32;;
71814;SDS011;59659;41.520;23.794;2022-12-07T02:54:52;20.08;;;9.77;;
71814;SDS011;59659;41.520;23.794;2022-12-07T02:56:17;17.08;;;9.65;;
71814;SDS011;59659;41.520;23.794;2022-12-07T02:57:40;14.00;;;8.00;;
71814;SDS011;59659;41.520;23.794;2022-12-07T03:00:08;16.90;;;8.70;;
71814;SDS011;59659;41.520;23.794;2022-12-07T03:02:52;19.00;;;8.63;;
71814;SDS011;59659;41.520;23.794;2022-12-07T03:05:10;19.20;;;7.22;;
71814;SDS011;59659;41.520;23.794;2022-12-07T03:05:52;11.13;;;7.07;;
71814;SDS011;59659;41.520;23.794;2022-12-07T03:07:08;15.20;;;6.70;;
71814;SDS011;59659;41.520;23.794;2022-12-07T03:12:29;15.70;;;7.10;;
71814;SDS011;59659;41.520;23.794;2022-12-07T03:15:05;10.75;;;5.22;;
71814;SDS011;59659;41.520;23.794;2022-12-07T03:17:30;17.50;;;6.82;;
71814;SDS011;59659;41.520;23.794;2022-12-07T03:18:55;21.20;;;10.02;;
71814;SDS011;59659;41.520;23.794;2022-12-07T03:20:07;21.67;;;10.10;;
71814;SDS011;59659;41.520;23.794;2022-12-07T03:21:27;22.70;;;9.90;;
71814;SDS011;59659;41.520;23.794;2022-12-07T03:22:42;31.90;;;10.45;;
71814;SDS011;59659;41.520;23.794;2022-12-07T03:23:56;17.30;;;8.52;;
71814;SDS011;59659;41.520;23.794;2022-12-07T03:25:08;20.73;;;9.93;;
71814;SDS011;59659;41.520;23.794;2022-12-07T03:26:21;16.90;;;7.72;;
71814;SDS011;59659;41.520;23.794;2022-12-07T03:28:52;15.25;;;7.22;;
71814;SDS011;59659;41.520;23.794;2022-12-07T03:30:07;14.95;;;7.30;;
71814;SDS011;59659;41.520;23.794;2022-12-07T03:31:21;15.60;;;7.63;;
71814;SDS011;59659;41.520;23.794;2022-12-07T03:32:35;20.27;;;7.78;;
71814;SDS011;59659;41.520;23.794;2022-12-07T03:33:49;13.90;;;6.43;;
71814;SDS011;59659;41.520;23.794;2022-12-07T03:36:36;20.27;;;9.95;;
71814;SDS011;59659;41.520;23.794;2022-12-07T03:38:00;19.63;;;9.13;;
71814;SDS011;59659;41.520;23.794;2022-12-07T03:39:24;19.17;;;8.48;;
71814;SDS011;59659;41.520;23.794;2022-12-07T03:40:40;15.25;;;6.55;;
71814;SDS011;59659;41.520;23.794;2022-12-07T03:41:54;14.35;;;8.00;;
71814;SDS011;59659;41.520;23.794;2022-12-07T03:43:06;14.32;;;7.18;;
71814;SDS011;59659;41.520;23.794;2022-12-07T03:44:18;10.07;;;5.72;;
71814;SDS011;59659;41.520;23.794;2022-12-07T03:45:32;14.45;;;5.75;;
71814;SDS011;59659;41.520;23.794;2022-12-07T03:47:06;10.45;;;4.63;;
71814;SDS011;59659;41.520;23.794;2022-12-07T03:48:24;12.32;;;5.88;;
71814;SDS011;59659;41.520;23.794;2022-12-07T03:50:58;13.60;;;6.13;;
71814;SDS011;59659;41.520;23.794;2022-12-07T03:52:26;12.75;;;5.80;;
71814;SDS011;59659;41.520;23.794;2022-12-07T03:53:40;15.48;;;7.22;;
71814;SDS011;59659;41.520;23.794;2022-12-07T03:56:24;35.53;;;15.27;;
71814;SDS011;59659;41.520;23.794;2022-12-07T03:57:36;31.83;;;15.07;;
71814;SDS011;59659;41.520;23.794;2022-12-07T03:58:49;20.67;;;10.40;;
71814;SDS011;59659;41.520;23.794;2022-12-07T04:00:01;17.38;;;7.25;;
71814;SDS011;59659;41.520;23.794;2022-12-07T04:01:13;13.77;;;5.80;;
71814;SDS011;59659;41.520;23.794;2022-12-07T04:02:25;14.65;;;5.40;;
71814;SDS011;59659;41.520;23.794;2022-12-07T04:03:37;9.27;;;4.97;;
71814;SDS011;59659;41.520;23.794;2022-12-07T04:04:48;9.95;;;5.47;;
71814;SDS011;59659;41.520;23.794;2022-12-07T04:06:00;9.45;;;5.38;;
71814;SDS011;59659;41.520;23.794;2022-12-07T04:07:12;11.73;;;6.50;;
71814;SDS011;59659;41.520;23.794;2022-12-07T04:08:24;14.85;;;5.38;;
71814;SDS011;59659;41.520;23.794;2022-12-07T04:09:36;19.80;;;6.32;;
71814;SDS011;59659;41.520;23.794;2022-12-07T04:10:47;12.88;;;5.63;;
71814;SDS011;59659;41.520;23.794;2022-12-07T04:11:59;11.20;;;5.88;;
71814;SDS011;59659;41.520;23.794;2022-12-07T04:13:11;12.65;;;5.45;;
71814;SDS011;59659;41.520;23.794;2022-12-07T04:14:22;9.38;;;5.28;;
71814;SDS011;59659;41.520;23.794;2022-12-07T04:15:34;13.68;;;5.38;;
71814;SDS011;59659;41.520;23.794;2022-12-07T04:16:49;8.68;;;5.70;;
71814;SDS011;59659;41.520;23.794;2022-12-07T04:18:01;9.90;;;4.75;;
71814;SDS011;59659;41.520;23.794;2022-12-07T04:19:12;13.18;;;5.60;;
71814;SDS011;59659;41.520;23.794;2022-12-07T04:20:24;12.48;;;5.07;;
71814;SDS011;59659;41.520;23.794;2022-12-07T04:21:36;12.95;;;5.85;;
71814;SDS011;59659;41.520;23.794;2022-12-07T04:22:47;9.15;;;4.55;;
71814;SDS011;59659;41.520;23.794;2022-12-07T04:23:59;11.07;;;5.68;;
71814;SDS011;59659;41.520;23.794;2022-12-07T04:25:10;12.27;;;5.50;;
71814;SDS011;59659;41.520;23.794;2022-12-07T04:26:22;11.50;;;4.82;;
71814;SDS011;59659;41.520;23.794;2022-12-07T04:27:33;12.95;;;5.90;;
71814;SDS011;59659;41.520;23.794;2022-12-07T04:28:45;13.45;;;6.47;;
71814;SDS011;59659;41.520;23.794;2022-12-07T04:29:57;12.35;;;5.80;;
71814;SDS011;59659;41.520;23.794;2022-12-07T04:31:08;15.82;;;5.97;;
71814;SDS011;59659;41.520;23.794;2022-12-07T04:32:20;8.88;;;5.10;;
71814;SDS011;59659;41.520;23.794;2022-12-07T04:33:31;11.50;;;5.25;;
71814;SDS011;59659;41.520;23.794;2022-12-07T04:34:43;16.83;;;7.43;;
71814;SDS011;59659;41.520;23.794;2022-12-07T04:35:54;12.93;;;6.18;;
71814;SDS011;59659;41.520;23.794;2022-12-07T04:37:06;13.50;;;5.75;;
71814;SDS011;59659;41.520;23.794;2022-12-07T04:38:17;14.38;;;6.53;;
71814;SDS011;59659;41.520;23.794;2022-12-07T04:39:30;12.10;;;5.82;;
71814;SDS011;59659;41.520;23.794;2022-12-07T04:40:41;16.27;;;5.30;;
71814;SDS011;59659;41.520;23.794;2022-12-07T04:41:53;16.42;;;5.90;;
71814;SDS011;59659;41.520;23.794;2022-12-07T04:43:05;14.77;;;6.18;;
71814;SDS011;59659;41.520;23.794;2022-12-07T04:44:17;28.90;;;11.70;;
71814;SDS011;59659;41.520;23.794;2022-12-07T04:45:28;21.17;;;10.13;;
71814;SDS011;59659;41.520;23.794;2022-12-07T04:46:40;16.77;;;8.32;;
71814;SDS011;59659;41.520;23.794;2022-12-07T04:47:52;18.98;;;9.02;;
71814;SDS011;59659;41.520;23.794;2022-12-07T04:49:03;31.23;;;12.55;;
71814;SDS011;59659;41.520;23.794;2022-12-07T04:50:15;28.48;;;12.65;;
71814;SDS011;59659;41.520;23.794;2022-12-07T04:51:27;29.48;;;13.73;;
71814;SDS011;59659;41.520;23.794;2022-12-07T04:52:39;24.77;;;11.60;;
71814;SDS011;59659;41.520;23.794;2022-12-07T04:53:51;29.92;;;12.32;;
71814;SDS011;59659;41.520;23.794;2022-12-07T04:55:02;39.95;;;15.38;;
71814;SDS011;59659;41.520;23.794;2022-12-07T04:56:14;27.25;;;13.73;;
71814;SDS011;59659;41.520;23.794;2022-12-07T04:57:26;26.00;;;13.48;;
71814;SDS011;59659;41.520;23.794;2022-12-07T04:58:38;23.35;;;11.15;;
71814;SDS011;59659;41.520;23.794;2022-12-07T04:59:49;22.98;;;10.68;;
71814;SDS011;59659;41.520;23.794;2022-12-07T05:01:01;19.80;;;10.40;;
71814;SDS011;59659;41.520;23.794;2022-12-07T05:02:12;30.60;;;13.60;;
71814;SDS011;59659;41.520;23.794;2022-12-07T05:03:24;29.15;;;13.68;;
71814;SDS011;59659;41.520;23.794;2022-12-07T05:04:35;32.95;;;14.75;;
71814;SDS011;59659;41.520;23.794;2022-12-07T05:05:47;32.92;;;16.20;;
71814;SDS011;59659;41.520;23.794;2022-12-07T05:06:59;34.63;;;15.20;;
71814;SDS011;59659;41.520;23.794;2022-12-07T05:08:10;32.25;;;15.25;;
71814;SDS011;59659;41.520;23.794;2022-12-07T05:09:22;22.92;;;12.20;;
71814;SDS011;59659;41.520;23.794;2022-12-07T05:10:33;39.25;;;16.63;;
71814;SDS011;59659;41.520;23.794;2022-12-07T05:11:45;36.13;;;14.85;;
71814;SDS011;59659;41.520;23.794;2022-12-07T05:12:56;26.95;;;13.88;;
71814;SDS011;59659;41.520;23.794;2022-12-07T05:14:09;24.35;;;11.18;;
71814;SDS011;59659;41.520;23.794;2022-12-07T05:15:21;27.50;;;13.85;;
71814;SDS011;59659;41.520;23.794;2022-12-07T05:16:33;32.20;;;12.85;;
71814;SDS011;59659;41.520;23.794;2022-12-07T05:17:44;25.73;;;11.55;;
71814;SDS011;59659;41.520;23.794;2022-12-07T05:18:56;26.05;;;12.02;;
71814;SDS011;59659;41.520;23.794;2022-12-07T05:20:08;28.48;;;12.55;;
71814;SDS011;59659;41.520;23.794;2022-12-07T05:21:20;19.83;;;10.60;;
71814;SDS011;59659;41.520;23.794;2022-12-07T05:22:31;23.73;;;12.48;;
71814;SDS011;59659;41.520;23.794;2022-12-07T05:23:43;28.73;;;12.02;;
71814;SDS011;59659;41.520;23.794;2022-12-07T05:24:55;26.48;;;12.85;;
71814;SDS011;59659;41.520;23.794;2022-12-07T05:26:07;21.80;;;10.80;;
71814;SDS011;59659;41.520;23.794;2022-12-07T05:27:18;45.88;;;19.20;;
71814;SDS011;59659;41.520;23.794;2022-12-07T05:28:30;46.60;;;18.95;;
71814;SDS011;59659;41.520;23.794;2022-12-07T05:29:41;51.15;;;20.38;;
71814;SDS011;59659;41.520;23.794;2022-12-07T05:30:53;39.53;;;19.27;;
71814;SDS011;59659;41.520;23.794;2022-12-07T05:32:10;76.70;;;32.00;;
71814;SDS011;59659;41.520;23.794;2022-12-07T05:33:21;83.30;;;37.08;;
71814;SDS011;59659;41.520;23.794;2022-12-07T05:34:33;74.43;;;31.27;;
71814;SDS011;59659;41.520;23.794;2022-12-07T05:35:44;68.53;;;32.00;;
71814;SDS011;59659;41.520;23.794;2022-12-07T05:36:56;65.63;;;30.50;;
71814;SDS011;59659;41.520;23.794;2022-12-07T05:38:07;64.85;;;28.15;;
71814;SDS011;59659;41.520;23.794;2022-12-07T05:39:19;62.58;;;29.95;;
71814;SDS011;59659;41.520;23.794;2022-12-07T05:40:30;70.63;;;27.98;;
71814;SDS011;59659;41.520;23.794;2022-12-07T05:41:42;60.15;;;25.27;;
71814;SDS011;59659;41.520;23.794;2022-12-07T05:43:12;55.17;;;25.15;;
71814;SDS011;59659;41.520;23.794;2022-12-07T05:44:24;42.53;;;20.50;;
71814;SDS011;59659;41.520;23.794;2022-12-07T05:45:35;53.55;;;22.88;;
71814;SDS011;59659;41.520;23.794;2022-12-07T05:46:47;49.78;;;23.92;;
71814;SDS011;59659;41.520;23.794;2022-12-07T05:47:59;54.80;;;23.48;;
71814;SDS011;59659;41.520;23.794;2022-12-07T05:49:10;46.22;;;19.83;;
71814;SDS011;59659;41.520;23.794;2022-12-07T05:50:22;45.00;;;20.65;;
71814;SDS011;59659;41.520;23.794;2022-12-07T05:51:33;41.47;;;18.88;;
71814;SDS011;59659;41.520;23.794;2022-12-07T05:52:45;47.25;;;20.13;;
71814;SDS011;59659;41.520;23.794;2022-12-07T05:53:56;30.90;;;14.10;;
71814;SDS011;59659;41.520;23.794;2022-12-07T05:55:08;22.23;;;11.57;;
71814;SDS011;59659;41.520;23.794;2022-12-07T05:56:20;15.30;;;8.40;;
71814;SDS011;59659;41.520;23.794;2022-12-07T05:57:31;15.70;;;7.28;;
71814;SDS011;59659;41.520;23.794;2022-12-07T05:58:43;26.70;;;10.73;;
71814;SDS011;59659;41.520;23.794;2022-12-07T06:00:13;22.00;;;10.70;;
71814;SDS011;59659;41.520;23.794;2022-12-07T06:01:25;37.63;;;16.17;;
71814;SDS011;59659;41.520;23.794;2022-12-07T06:02:36;33.80;;;13.95;;
71814;SDS011;59659;41.520;23.794;2022-12-07T06:03:48;40.05;;;15.15;;
71814;SDS011;59659;41.520;23.794;2022-12-07T06:05:00;32.50;;;15.23;;
71814;SDS011;59659;41.520;23.794;2022-12-07T06:06:11;36.53;;;15.52;;
71814;SDS011;59659;41.520;23.794;2022-12-07T06:07:23;33.90;;;15.35;;
71814;SDS011;59659;41.520;23.794;2022-12-07T06:08:34;39.75;;;15.93;;
71814;SDS011;59659;41.520;23.794;2022-12-07T06:09:46;53.45;;;20.75;;
71814;SDS011;59659;41.520;23.794;2022-12-07T06:10:57;41.67;;;16.38;;
71814;SDS011;59659;41.520;23.794;2022-12-07T06:12:28;22.70;;;10.82;;
71814;SDS011;59659;41.520;23.794;2022-12-07T06:13:45;21.08;;;10.38;;
71814;SDS011;59659;41.520;23.794;2022-12-07T06:14:57;24.83;;;10.60;;
71814;SDS011;59659;41.520;23.794;2022-12-07T06:16:09;21.98;;;10.18;;
71814;SDS011;59659;41.520;23.794;2022-12-07T06:17:20;29.73;;;11.10;;
71814;SDS011;59659;41.520;23.794;2022-12-07T06:18:32;25.65;;;10.40;;
71814;SDS011;59659;41.520;23.794;2022-12-07T06:19:44;23.70;;;10.00;;
71814;SDS011;59659;41.520;23.794;2022-12-07T06:20:55;27.25;;;11.82;;
71814;SDS011;59659;41.520;23.794;2022-12-07T06:22:07;30.20;;;11.27;;
71814;SDS011;59659;41.520;23.794;2022-12-07T06:23:20;39.63;;;18.30;;
71814;SDS011;59659;41.520;23.794;2022-12-07T06:24:31;38.90;;;18.58;;
71814;SDS011;59659;41.520;23.794;2022-12-07T06:25:45;30.98;;;14.40;;
71814;SDS011;59659;41.520;23.794;2022-12-07T06:26:56;45.92;;;16.33;;
71814;SDS011;59659;41.520;23.794;2022-12-07T06:28:08;48.53;;;19.88;;
71814;SDS011;59659;41.520;23.794;2022-12-07T06:29:19;41.03;;;17.65;;
71814;SDS011;59659;41.520;23.794;2022-12-07T06:30:31;48.53;;;21.25;;
71814;SDS011;59659;41.520;23.794;2022-12-07T06:31:42;47.13;;;22.67;;
71814;SDS011;59659;41.520;23.794;2022-12-07T06:32:54;41.50;;;18.65;;
71814;SDS011;59659;41.520;23.794;2022-12-07T06:34:08;41.88;;;18.52;;
71814;SDS011;59659;41.520;23.794;2022-12-07T06:35:20;67.97;;;24.48;;
71814;SDS011;59659;41.520;23.794;2022-12-07T06:36:32;69.88;;;28.20;;
71814;SDS011;59659;41.520;23.794;2022-12-07T06:37:43;63.78;;;27.60;;
71814;SDS011;59659;41.520;23.794;2022-12-07T06:38:55;68.53;;;29.45;;
71814;SDS011;59659;41.520;23.794;2022-12-07T06:40:07;56.95;;;25.15;;
71814;SDS011;59659;41.520;23.794;2022-12-07T06:41:19;48.53;;;21.13;;
71814;SDS011;59659;41.520;23.794;2022-12-07T06:42:30;37.38;;;21.70;;
71814;SDS011;59659;41.520;23.794;2022-12-07T06:43:42;38.97;;;20.83;;
71814;SDS011;59659;41.520;23.794;2022-12-07T06:44:53;44.55;;;20.67;;
71814;SDS011;59659;41.520;23.794;2022-12-07T06:46:05;60.47;;;23.20;;
71814;SDS011;59659;41.520;23.794;2022-12-07T06:47:17;38.22;;;19.90;;
71814;SDS011;59659;41.520;23.794;2022-12-07T06:48:48;42.70;;;19.27;;
71814;SDS011;59659;41.520;23.794;2022-12-07T06:50:00;63.47;;;25.20;;
71814;SDS011;59659;41.520;23.794;2022-12-07T06:51:12;57.40;;;25.52;;
71814;SDS011;59659;41.520;23.794;2022-12-07T06:52:24;59.22;;;27.35;;
71814;SDS011;59659;41.520;23.794;2022-12-07T06:53:35;51.67;;;23.27;;
71814;SDS011;59659;41.520;23.794;2022-12-07T06:54:47;56.03;;;26.15;;
71814;SDS011;59659;41.520;23.794;2022-12-07T06:55:58;41.78;;;21.13;;
71814;SDS011;59659;41.520;23.794;2022-12-07T06:57:10;49.38;;;21.30;;
71814;SDS011;59659;41.520;23.794;2022-12-07T06:58:22;40.30;;;18.13;;
71814;SDS011;59659;41.520;23.794;2022-12-07T06:59:33;56.13;;;25.02;;
71814;SDS011;59659;41.520;23.794;2022-12-07T07:00:45;49.85;;;22.13;;
71814;SDS011;59659;41.520;23.794;2022-12-07T07:01:57;38.33;;;19.67;;
71814;SDS011;59659;41.520;23.794;2022-12-07T07:03:08;38.72;;;16.80;;
71814;SDS011;59659;41.520;23.794;2022-12-07T07:04:20;28.48;;;14.32;;
71814;SDS011;59659;41.520;23.794;2022-12-07T07:05:31;35.15;;;18.13;;
71814;SDS011;59659;41.520;23.794;2022-12-07T07:06:43;32.67;;;15.63;;
71814;SDS011;59659;41.520;23.794;2022-12-07T07:07:54;30.58;;;15.32;;
71814;SDS011;59659;41.520;23.794;2022-12-07T07:09:26;26.30;;;14.13;;
71814;SDS011;59659;41.520;23.794;2022-12-07T08:18:12;33.50;;;16.52;;
71814;SDS011;59659;41.520;23.794;2022-12-07T08:19:24;27.85;;;14.13;;
71814;SDS011;59659;41.520;23.794;2022-12-07T08:20:37;34.45;;;15.57;;
71814;SDS011;59659;41.520;23.794;2022-12-07T08:21:49;28.88;;;14.25;;
71814;SDS011;59659;41.520;23.794;2022-12-07T08:23:00;33.92;;;15.00;;
71814;SDS011;59659;41.520;23.794;2022-12-07T08:24:12;28.08;;;16.20;;
71814;SDS011;59659;41.520;23.794;2022-12-07T08:25:24;38.97;;;18.30;;
71814;SDS011;59659;41.520;23.794;2022-12-07T08:26:36;35.42;;;18.02;;
71814;SDS011;59659;41.520;23.794;2022-12-07T08:27:48;37.92;;;18.05;;
71814;SDS011;59659;41.520;23.794;2022-12-07T08:29:00;38.10;;;17.48;;
71814;SDS011;59659;41.520;23.794;2022-12-07T08:30:11;30.65;;;15.38;;
71814;SDS011;59659;41.520;23.794;2022-12-07T08:31:23;37.42;;;16.13;;
71814;SDS011;59659;41.520;23.794;2022-12-07T08:32:35;31.48;;;15.75;;
71814;SDS011;59659;41.520;23.794;2022-12-07T08:33:47;32.22;;;17.10;;
71814;SDS011;59659;41.520;23.794;2022-12-07T08:34:58;34.80;;;16.83;;
71814;SDS011;59659;41.520;23.794;2022-12-07T08:36:10;36.58;;;16.80;;
71814;SDS011;59659;41.520;23.794;2022-12-07T08:37:22;31.10;;;16.65;;